Portada
METAR-TAF:

METAR-TAF

Aeroports :

El Oued, Algèria

latitud: 33-30-47N, longitud: 006-46-57E, altitud: 62 m

Observació

L'informe es va fer fa 56 minuts, a les 17:00 UTC
Vent 4 kt del Sud/Sud-Oest
Temperatura 28°C
Humitat 23%
Pressió 1005 hPa
Visibilitat 10 km o més
sense núvols per sota de 1500 mi sense presència de cumulonimbus.

METAR: DAUO 231700Z 20004KT CAVOK 28/05 Q1005

Hora: 18:56 (17:56 UTC)

Pronòstic

L'informe es va fer fa 3 hores i 56 minuts, a les 14:00 UTC
Pronòstic vàlid del 23 a les 15 UTC al 23 a les 24 UTC
Vent 6 kt del Sud-Oest
Visibilitat 10 km o més
Escasses núvols a una alçada de 4000 ft
Evolucionant progressivament
l' 23 a les 19 UTC al 23 a les 22 UTC
Vent 12 kt del Nord-Est

TAF: DAUO 231400Z 2315/2324 22006KT 9999 FEW040 BECMG 2319/2322 04012KT

Observacions i pronòstics meteorològics de més de 4000 aeroports (METAR i TAF).

Les estacions disponibles són els punts grocs i vermells al mapa.

Posi el ratolí al punt desitjat per veure el nom de l'estació.

Feu clic per veure les observacions i els pronòstics meteorològics.

Per canviar el mapa: feu clic els botons verds amb una creu de color negre per apropar; al botó verd amb un guió per allunyar la imatge; o en les fletxes verdes per a mapes adjacents.


METAR-TAF: